Time;durP1;ratioP1;P1;durP2;ratioP2;P2;SDS_P1;SDS_P2;PMS_P1;PMS_P2;Temp;Humidity;BMP_temperature;BMP_pressure;BME280_temperature;BME280_humidity;BME280_pressure;Samples;Min_cycle;Max_cycle;Signal;HPM_P1;HPM_P2
2022/06/26 00:01:56;;;;;;;4.88;3.60;;;23.80;99.90;;;;;;4160318;28;20278;-75
2022/06/26 00:03:58;;;;;;;3.90;3.05;;;23.70;99.90;;;;;;4160580;28;20225;-75
2022/06/26 00:06:02;;;;;;;5.30;3.60;;;23.70;99.90;;;;;;4161640;28;20664;-75
2022/06/26 00:08:05;;;;;;;4.82;3.35;;;23.70;99.90;;;;;;4159501;28;20229;-75
2022/06/26 00:10:09;;;;;;;4.75;3.35;;;23.70;99.90;;;;;;4161271;28;20286;-75
2022/06/26 00:12:11;;;;;;;4.88;3.33;;;23.70;99.90;;;;;;4160216;28;20958;-75
2022/06/26 00:14:13;;;;;;;3.42;3.03;;;23.70;99.90;;;;;;4161533;28;20287;-75
2022/06/26 00:16:16;;;;;;;4.43;3.13;;;23.70;99.90;;;;;;4162608;28;20224;-75
2022/06/26 00:18:19;;;;;;;4.00;3.53;;;23.70;99.90;;;;;;4161577;28;20224;-75
2022/06/26 00:20:21;;;;;;;5.25;3.38;;;23.70;99.90;;;;;;4161397;28;20217;-75
2022/06/26 00:22:25;;;;;;;6.07;3.25;;;23.70;99.90;;;;;;4161659;28;20212;-75
2022/06/26 00:24:27;;;;;;;4.07;3.35;;;23.70;99.90;;;;;;4160259;28;20216;-75
2022/06/26 00:26:30;;;;;;;4.60;3.75;;;23.70;99.90;;;;;;4158515;28;20549;-75
2022/06/26 00:28:32;;;;;;;4.32;3.17;;;23.70;99.90;;;;;;4160745;28;20224;-74
2022/06/26 00:30:34;;;;;;;4.43;3.20;;;23.70;99.90;;;;;;4160483;28;20224;-75
2022/06/26 00:32:37;;;;;;;3.97;3.20;;;23.70;99.90;;;;;;4160767;28;20590;-75
2022/06/26 00:34:39;;;;;;;4.20;3.05;;;23.70;99.90;;;;;;4160282;28;20295;-76
2022/06/26 00:36:42;;;;;;;5.00;3.70;;;23.70;99.90;;;;;;4160218;28;20224;-75
2022/06/26 00:38:45;;;;;;;4.13;3.30;;;23.70;99.90;;;;;;4161100;28;20228;-75
2022/06/26 00:40:48;;;;;;;5.25;3.40;;;23.70;99.90;;;;;;4161319;28;20220;-75
2022/06/26 00:42:50;;;;;;;6.97;3.92;;;23.60;99.90;;;;;;4160405;28;20221;-75
2022/06/26 00:44:55;;;;;;;4.38;3.53;;;23.70;99.90;;;;;;4157081;28;20562;-75
2022/06/26 00:46:58;;;;;;;4.90;3.67;;;23.60;99.90;;;;;;4162352;28;20703;-75
2022/06/26 00:49:00;;;;;;;3.38;3.00;;;23.60;99.90;;;;;;4169382;28;20335;-75
2022/06/26 00:51:03;;;;;;;4.72;3.53;;;23.70;99.90;;;;;;4162234;28;20217;-75
2022/06/26 00:53:05;;;;;;;5.10;4.18;;;23.70;99.90;;;;;;4162245;28;20307;-75
2022/06/26 00:55:11;;;;;;;5.90;3.42;;;23.60;99.90;;;;;;4162152;28;20263;-75
2022/06/26 00:57:13;;;;;;;4.75;3.25;;;23.60;99.90;;;;;;4159540;28;20217;-75
2022/06/26 00:59:16;;;;;;;4.53;3.30;;;23.70;99.90;;;;;;4159632;28;20216;-75
2022/06/26 01:01:18;;;;;;;4.80;3.40;;;23.60;99.90;;;;;;4158767;28;20612;-75
2022/06/26 01:03:21;;;;;;;4.28;3.13;;;23.60;99.90;;;;;;4160530;28;20209;-75
2022/06/26 01:05:23;;;;;;;4.32;3.30;;;23.60;99.90;;;;;;4161957;28;20216;-75
2022/06/26 01:07:27;;;;;;;3.80;3.20;;;23.60;99.90;;;;;;4161221;28;20626;-75
2022/06/26 01:09:29;;;;;;;4.18;3.15;;;23.60;99.90;;;;;;4161284;28;20262;-75
2022/06/26 01:11:33;;;;;;;4.60;3.20;;;23.60;99.90;;;;;;4152087;28;20262;-75
2022/06/26 01:13:35;;;;;;;4.07;3.13;;;23.60;99.90;;;;;;4161506;28;21107;-75
2022/06/26 01:15:39;;;;;;;4.72;3.55;;;23.60;99.90;;;;;;4160226;28;20216;-75
2022/06/26 01:17:41;;;;;;;5.10;3.60;;;23.60;99.90;;;;;;4160841;28;20213;-75
2022/06/26 01:19:44;;;;;;;3.63;2.92;;;23.60;99.90;;;;;;4161821;28;20224;-75
2022/06/26 01:21:47;;;;;;;6.72;4.00;;;23.60;99.90;;;;;;4162071;28;20212;-75
2022/06/26 01:23:52;;;;;;;4.55;3.45;;;23.50;99.90;;;;;;4161724;28;20282;-75
2022/06/26 01:25:55;;;;;;;5.65;3.75;;;23.60;99.90;;;;;;4154360;28;20224;-76
2022/06/26 01:27:57;;;;;;;7.38;3.92;;;23.60;99.90;;;;;;4156012;28;20290;-75
2022/06/26 01:29:59;;;;;;;4.93;3.47;;;23.60;99.90;;;;;;4161754;28;20220;-75
2022/06/26 01:32:01;;;;;;;4.63;3.65;;;23.50;99.90;;;;;;4161595;28;20691;-75
2022/06/26 01:34:05;;;;;;;3.75;3.40;;;23.60;99.90;;;;;;4159703;28;20232;-75
2022/06/26 01:36:07;;;;;;;4.50;3.63;;;23.50;99.90;;;;;;4158309;28;20264;-75
2022/06/26 01:38:11;;;;;;;4.95;3.67;;;23.60;99.90;;;;;;4155900;28;20641;-75
2022/06/26 01:40:15;;;;;;;7.95;3.83;;;23.60;99.90;;;;;;4161737;28;20661;-75
2022/06/26 01:42:17;;;;;;;5.25;3.70;;;23.60;99.90;;;;;;4161139;28;20278;-76
2022/06/26 01:44:19;;;;;;;5.00;3.78;;;23.50;99.90;;;;;;4161701;28;20251;-75
2022/06/26 01:46:23;;;;;;;4.55;3.80;;;23.60;99.90;;;;;;4161580;28;20274;-75
2022/06/26 01:48:27;;;;;;;5.25;3.78;;;23.60;99.90;;;;;;4161334;28;20297;-75
2022/06/26 01:50:29;;;;;;;5.75;3.53;;;23.60;99.90;;;;;;4159041;28;20290;-75
2022/06/26 01:52:31;;;;;;;5.55;3.53;;;23.60;99.90;;;;;;4159006;28;20675;-75
2022/06/26 01:54:34;;;;;;;5.07;4.00;;;23.50;99.90;;;;;;4159804;28;20270;-75
2022/06/26 01:56:37;;;;;;;4.70;3.92;;;23.50;99.90;;;;;;4160215;28;20262;-75
2022/06/26 01:58:40;;;;;;;5.38;3.90;;;23.60;99.90;;;;;;4157418;28;20216;-75
2022/06/26 02:00:45;;;;;;;7.95;4.07;;;23.60;99.90;;;;;;4160372;28;20270;-75
2022/06/26 02:02:47;;;;;;;4.57;3.75;;;23.50;99.90;;;;;;4159846;28;20250;-75
2022/06/26 02:04:49;;;;;;;4.72;3.72;;;23.60;99.90;;;;;;4159718;28;20220;-75
2022/06/26 02:06:52;;;;;;;5.15;3.63;;;23.60;99.90;;;;;;4157810;28;20294;-75
2022/06/26 02:08:56;;;;;;;5.15;4.15;;;23.50;99.90;;;;;;4156885;28;20229;-75
2022/06/26 02:13:39;;;;;;;5.00;3.97;;;23.50;99.90;;;;;;4157937;28;20197;-75
2022/06/26 02:15:41;;;;;;;4.72;3.67;;;23.50;99.90;;;;;;4159993;28;20676;-75
2022/06/26 02:17:43;;;;;;;5.65;3.83;;;23.50;99.90;;;;;;4158678;28;20571;-75
2022/06/26 02:19:46;;;;;;;4.55;3.80;;;23.50;99.90;;;;;;4159389;28;20274;-75
2022/06/26 02:21:48;;;;;;;4.50;4.03;;;23.50;99.90;;;;;;4159884;28;20273;-75
2022/06/26 02:23:52;;;;;;;5.05;4.20;;;23.50;99.90;;;;;;4155746;28;21664;-75
2022/06/26 02:25:55;;;;;;;6.60;4.53;;;23.50;99.90;;;;;;4155894;28;20590;-75
2022/06/26 02:27:57;;;;;;;5.90;3.97;;;23.50;99.90;;;;;;4159808;28;20700;-75
2022/06/26 02:30:01;;;;;;;5.72;4.05;;;23.50;99.90;;;;;;4159578;28;20224;-75
2022/06/26 02:32:04;;;;;;;7.38;4.47;;;23.40;99.90;;;;;;4154190;28;20850;-75
2022/06/26 02:34:06;;;;;;;5.30;3.80;;;23.40;99.90;;;;;;4159330;28;20290;-75
2022/06/26 02:36:09;;;;;;;5.70;4.28;;;23.40;99.90;;;;;;4159649;28;20204;-75
2022/06/26 02:38:11;;;;;;;4.90;3.78;;;23.50;99.90;;;;;;4159504;28;20216;-75
2022/06/26 02:40:14;;;;;;;5.90;4.40;;;23.40;99.90;;;;;;4159538;28;20286;-75
2022/06/26 02:42:16;;;;;;;5.68;3.80;;;23.40;99.90;;;;;;4158124;28;20283;-75
2022/06/26 02:44:20;;;;;;;5.22;4.25;;;23.40;99.90;;;;;;4157850;28;20220;-75
2022/06/26 02:46:23;;;;;;;5.53;4.15;;;23.50;99.90;;;;;;4159847;28;20228;-75
2022/06/26 02:48:26;;;;;;;4.38;3.97;;;23.40;99.90;;;;;;4159681;28;20252;-75
2022/06/26 02:50:28;;;;;;;6.53;4.13;;;23.40;99.90;;;;;;4159022;28;20275;-75
2022/06/26 02:52:31;;;;;;;5.72;4.22;;;23.50;99.90;;;;;;4159218;28;20282;-78
2022/06/26 02:54:33;;;;;;;5.93;4.50;;;23.40;99.90;;;;;;4159172;28;20270;-75
2022/06/26 02:56:36;;;;;;;5.07;4.07;;;23.40;99.90;;;;;;4158419;28;20657;-75
2022/06/26 02:58:38;;;;;;;7.13;4.80;;;23.40;99.90;;;;;;4157703;28;20267;-75
2022/06/26 03:00:40;;;;;;;5.15;4.25;;;23.40;99.90;;;;;;4161721;28;20224;-75
2022/06/26 03:02:44;;;;;;;6.03;4.45;;;23.40;99.90;;;;;;4163065;28;20216;-75
2022/06/26 03:04:47;;;;;;;6.20;4.32;;;23.40;99.90;;;;;;4162692;28;20220;-75
2022/06/26 03:06:49;;;;;;;5.88;4.13;;;23.40;99.90;;;;;;4162579;28;20224;-75
2022/06/26 03:08:51;;;;;;;5.55;4.35;;;23.40;99.90;;;;;;4161752;28;20278;-75
2022/06/26 03:10:53;;;;;;;6.28;4.45;;;23.40;99.90;;;;;;4161948;28;20208;-75
2022/06/26 03:12:56;;;;;;;4.65;3.90;;;23.40;99.90;;;;;;4162020;28;20248;-75
2022/06/26 03:14:58;;;;;;;5.80;4.38;;;23.40;99.90;;;;;;4161947;28;20220;-75
2022/06/26 03:17:01;;;;;;;5.80;4.43;;;23.40;99.90;;;;;;4161864;28;20241;-75
2022/06/26 03:19:04;;;;;;;6.28;4.40;;;23.40;99.90;;;;;;4162281;28;20209;-75
2022/06/26 03:21:07;;;;;;;6.50;4.50;;;23.40;99.90;;;;;;4160695;28;20216;-75
2022/06/26 03:23:09;;;;;;;5.90;4.65;;;23.40;99.90;;;;;;4160609;28;20277;-75
2022/06/26 03:25:11;;;;;;;5.57;4.10;;;23.40;99.90;;;;;;4162259;28;20681;-75
2022/06/26 03:27:14;;;;;;;4.50;4.03;;;23.40;99.90;;;;;;4162142;28;20271;-75
2022/06/26 03:29:16;;;;;;;6.13;4.60;;;23.40;99.90;;;;;;4161919;28;20271;-76
2022/06/26 03:31:18;;;;;;;5.80;4.18;;;23.40;99.90;;;;;;4159331;28;20224;-75
2022/06/26 03:33:21;;;;;;;5.13;4.40;;;23.40;99.90;;;;;;4159689;28;20322;-75
2022/06/26 03:35:24;;;;;;;5.50;4.32;;;23.40;99.90;;;;;;4159253;28;20212;-75
2022/06/26 03:37:27;;;;;;;4.95;4.45;;;23.40;99.90;;;;;;4161729;28;20221;-75
2022/06/26 03:39:29;;;;;;;5.68;4.18;;;23.40;99.90;;;;;;4161474;28;20250;-75
2022/06/26 03:41:32;;;;;;;4.55;4.00;;;23.40;99.90;;;;;;4161907;28;20208;-75
2022/06/26 03:43:34;;;;;;;5.47;4.43;;;23.30;99.90;;;;;;4161908;28;20220;-75
2022/06/26 03:45:36;;;;;;;6.30;4.38;;;23.30;99.90;;;;;;4161865;28;20216;-75
2022/06/26 03:47:38;;;;;;;5.65;4.50;;;23.40;99.90;;;;;;4161897;28;21789;-75
2022/06/26 03:49:41;;;;;;;5.70;4.43;;;23.30;99.90;;;;;;4160188;28;20236;-75
2022/06/26 03:51:44;;;;;;;5.85;4.25;;;23.40;99.90;;;;;;4160114;28;20283;-75
2022/06/26 03:53:47;;;;;;;5.13;3.83;;;23.30;99.90;;;;;;4161989;28;20242;-75
2022/06/26 03:55:49;;;;;;;5.47;4.28;;;23.30;99.90;;;;;;4161393;28;20221;-75
2022/06/26 03:57:51;;;;;;;6.28;4.50;;;23.40;99.90;;;;;;4161910;28;20271;-75
2022/06/26 03:59:54;;;;;;;5.85;4.25;;;23.30;99.90;;;;;;4160344;28;20279;-75
2022/06/26 04:01:57;;;;;;;4.93;4.38;;;23.30;99.90;;;;;;4161419;28;20255;-75
2022/06/26 04:03:59;;;;;;;7.28;4.47;;;23.30;99.90;;;;;;4159244;28;20217;-75
2022/06/26 04:06:01;;;;;;;5.85;4.28;;;23.30;99.90;;;;;;4159951;28;20270;-75
2022/06/26 04:08:06;;;;;;;4.68;4.28;;;23.30;99.90;;;;;;4161094;28;20274;-75
2022/06/26 04:10:08;;;;;;;6.47;4.88;;;23.30;99.90;;;;;;4160919;28;20298;-75
2022/06/26 04:12:11;;;;;;;5.97;4.22;;;23.30;99.90;;;;;;4160447;28;20289;-75
2022/06/26 04:14:13;;;;;;;5.85;4.20;;;23.30;99.90;;;;;;4162489;28;20220;-75
2022/06/26 04:16:16;;;;;;;5.15;4.28;;;23.40;99.90;;;;;;4160789;28;20307;-75
2022/06/26 04:18:18;;;;;;;4.63;3.78;;;23.40;99.90;;;;;;4161213;28;20220;-75
2022/06/26 04:20:20;;;;;;;5.10;4.40;;;23.30;99.90;;;;;;4157903;28;20212;-75
2022/06/26 04:22:23;;;;;;;5.43;4.50;;;23.30;99.90;;;;;;4159765;28;20224;-75
2022/06/26 04:24:26;;;;;;;5.60;4.47;;;23.30;99.90;;;;;;4159656;28;20216;-75
2022/06/26 04:26:29;;;;;;;5.90;4.13;;;23.30;99.90;;;;;;4159973;28;20220;-75
2022/06/26 04:28:32;;;;;;;6.65;4.40;;;23.30;99.90;;;;;;4161187;28;20224;-75
2022/06/26 04:30:34;;;;;;;6.55;4.53;;;23.30;99.90;;;;;;4161548;28;20208;-75
2022/06/26 04:32:36;;;;;;;5.28;4.53;;;23.30;99.90;;;;;;4160452;28;20294;-74
2022/06/26 04:34:39;;;;;;;4.93;4.43;;;23.40;99.90;;;;;;4161614;28;20224;-75
2022/06/26 04:36:41;;;;;;;5.60;4.95;;;23.30;99.90;;;;;;4161655;28;20263;-76
2022/06/26 04:38:44;;;;;;;5.68;4.35;;;23.30;99.90;;;;;;4159443;28;20220;-75
2022/06/26 04:40:48;;;;;;;6.63;4.70;;;23.30;99.90;;;;;;4159665;28;20346;-76
2022/06/26 04:42:50;;;;;;;5.20;4.00;;;23.30;99.90;;;;;;4159389;28;20604;-75
2022/06/26 04:44:53;;;;;;;6.00;4.43;;;23.30;99.90;;;;;;4160727;28;20270;-76
2022/06/26 04:46:55;;;;;;;5.28;4.20;;;23.30;99.90;;;;;;4161375;28;20278;-76
2022/06/26 04:48:57;;;;;;;5.18;3.78;;;23.30;99.90;;;;;;4159879;28;20274;-76
2022/06/26 04:51:00;;;;;;;6.25;4.50;;;23.30;99.90;;;;;;4160640;28;20646;-75
2022/06/26 04:53:02;;;;;;;5.75;4.30;;;23.30;99.90;;;;;;4160689;28;20213;-75
2022/06/26 04:55:05;;;;;;;5.30;4.30;;;23.30;99.90;;;;;;4160796;28;20274;-75
2022/06/26 04:57:09;;;;;;;6.05;4.82;;;23.30;99.90;;;;;;4157200;28;20225;-75
2022/06/26 04:59:11;;;;;;;4.95;3.65;;;23.30;99.90;;;;;;4158915;28;21031;-75
2022/06/26 05:01:14;;;;;;;6.18;4.45;;;23.30;99.90;;;;;;4160564;28;20212;-75
2022/06/26 05:03:17;;;;;;;4.88;4.38;;;23.30;99.90;;;;;;4158579;28;20221;-76
2022/06/26 05:05:19;;;;;;;6.10;4.40;;;23.30;99.90;;;;;;4160338;28;20216;-75
2022/06/26 05:07:21;;;;;;;4.43;3.80;;;23.40;99.90;;;;;;4160483;28;20212;-75
2022/06/26 05:09:24;;;;;;;5.15;4.35;;;23.30;99.90;;;;;;4159380;28;20302;-75
2022/06/26 05:11:26;;;;;;;5.10;4.38;;;23.40;99.90;;;;;;4160310;28;20226;-76
2022/06/26 05:13:30;;;;;;;5.50;4.43;;;23.40;99.90;;;;;;4159947;28;20212;-76
2022/06/26 05:15:32;;;;;;;5.88;4.55;;;23.30;99.90;;;;;;4157423;28;20216;-76
2022/06/26 05:17:34;;;;;;;7.50;4.43;;;23.30;99.90;;;;;;4160279;28;20224;-76
2022/06/26 05:19:37;;;;;;;4.93;4.40;;;23.30;99.90;;;;;;4160250;28;20633;-75
2022/06/26 05:21:39;;;;;;;4.70;4.20;;;23.30;99.90;;;;;;4159899;28;20228;-75
2022/06/26 05:23:41;;;;;;;5.90;4.45;;;23.40;99.90;;;;;;4160998;28;20204;-75
2022/06/26 05:25:43;;;;;;;4.93;4.10;;;23.30;99.90;;;;;;4160695;28;20221;-75
2022/06/26 05:27:46;;;;;;;5.35;3.92;;;23.30;99.90;;;;;;4160296;28;20726;-75
2022/06/26 05:29:50;;;;;;;5.97;3.90;;;23.30;99.90;;;;;;4160362;28;20279;-75
2022/06/26 05:31:53;;;;;;;6.68;4.18;;;23.30;99.90;;;;;;4157434;28;20294;-75
2022/06/26 05:33:55;;;;;;;5.78;4.50;;;23.30;99.90;;;;;;4157997;28;20270;-76
2022/06/26 05:35:57;;;;;;;6.20;4.72;;;23.30;99.90;;;;;;4159977;28;20220;-76
2022/06/26 05:38:00;;;;;;;5.88;4.72;;;23.30;99.90;;;;;;4160313;28;20220;-75
2022/06/26 05:40:02;;;;;;;5.93;4.07;;;23.30;99.90;;;;;;4159494;28;20216;-76
2022/06/26 05:42:05;;;;;;;4.70;4.15;;;23.30;99.90;;;;;;4159708;28;20278;-76
2022/06/26 05:44:07;;;;;;;5.40;4.22;;;23.40;99.90;;;;;;4159746;28;20224;-75
2022/06/26 05:46:11;;;;;;;6.40;4.68;;;23.30;99.90;;;;;;4159501;28;20300;-76
2022/06/26 05:48:13;;;;;;;7.38;4.43;;;23.30;99.90;;;;;;4158180;28;20228;-75
2022/06/26 05:50:16;;;;;;;5.93;4.18;;;23.40;99.90;;;;;;4158111;28;20244;-75
2022/06/26 05:52:19;;;;;;;5.75;4.43;;;23.40;99.90;;;;;;4159988;28;20216;-75
2022/06/26 05:54:21;;;;;;;4.75;3.92;;;23.30;99.90;;;;;;4160026;28;20266;-76
2022/06/26 05:56:23;;;;;;;5.80;3.90;;;23.40;99.90;;;;;;4159379;28;20220;-76
2022/06/26 05:58:25;;;;;;;4.72;4.00;;;23.40;99.90;;;;;;4159879;28;20259;-76
2022/06/26 06:00:28;;;;;;;6.93;4.68;;;23.40;99.90;;;;;;4160038;28;20282;-76
2022/06/26 06:02:31;;;;;;;5.60;3.90;;;23.40;99.90;;;;;;4157091;28;20657;-75
2022/06/26 06:04:34;;;;;;;4.78;3.90;;;23.40;99.90;;;;;;4158866;28;20274;-76
2022/06/26 06:06:36;;;;;;;4.50;4.10;;;23.40;99.90;;;;;;4159754;28;20228;-76
2022/06/26 06:08:38;;;;;;;5.15;4.15;;;23.40;99.90;;;;;;4152994;28;20609;-76
2022/06/26 06:10:41;;;;;;;6.55;4.65;;;23.40;99.90;;;;;;4159243;28;20275;-75
2022/06/26 06:12:43;;;;;;;4.88;4.20;;;23.40;99.90;;;;;;4160052;28;20208;-75
2022/06/26 06:14:45;;;;;;;4.78;4.25;;;23.40;99.90;;;;;;4159992;28;20683;-76
2022/06/26 06:16:48;;;;;;;5.40;4.05;;;23.40;99.90;;;;;;4157049;28;20283;-75
2022/06/26 06:18:51;;;;;;;6.00;3.72;;;23.40;99.90;;;;;;4159840;28;20669;-75
2022/06/26 06:20:54;;;;;;;5.93;3.92;;;23.40;99.90;;;;;;4159652;28;20212;-76
2022/06/26 06:23:06;;;;;;;5.10;4.20;;;23.40;99.90;;;;;;4157808;28;20224;-75
2022/06/26 06:25:10;;;;;;;4.65;4.10;;;23.40;99.90;;;;;;4158888;28;20623;-76
2022/06/26 06:27:12;;;;;;;4.50;3.92;;;23.40;99.90;;;;;;4159821;28;20209;-75
2022/06/26 06:29:14;;;;;;;4.60;3.90;;;23.40;99.90;;;;;;4159283;28;20723;-75
2022/06/26 06:31:16;;;;;;;4.15;3.75;;;23.40;99.90;;;;;;4159630;28;20271;-75
2022/06/26 06:33:19;;;;;;;4.63;3.88;;;23.40;99.90;;;;;;4159982;28;20270;-75
2022/06/26 06:35:22;;;;;;;5.80;3.83;;;23.40;99.90;;;;;;4162728;28;20217;-76
2022/06/26 06:37:25;;;;;;;4.45;3.72;;;23.40;99.90;;;;;;4162970;28;20216;-75
2022/06/26 06:39:27;;;;;;;4.97;3.90;;;23.40;99.90;;;;;;4159589;28;20278;-75
2022/06/26 06:41:29;;;;;;;4.85;4.10;;;23.40;99.90;;;;;;4162419;28;21636;-75
2022/06/26 06:43:32;;;;;;;4.32;3.92;;;23.40;99.90;;;;;;4163186;28;20731;-75
2022/06/26 06:45:34;;;;;;;6.35;4.32;;;23.40;99.90;;;;;;4161697;28;20212;-76
2022/06/26 06:47:37;;;;;;;4.95;4.05;;;23.40;99.90;;;;;;4163139;28;20216;-76
2022/06/26 06:49:39;;;;;;;4.95;4.10;;;23.40;99.90;;;;;;4162573;28;20297;-75
2022/06/26 06:51:43;;;;;;;5.13;4.10;;;23.40;99.90;;;;;;4162092;28;20306;-76
2022/06/26 06:53:45;;;;;;;5.18;4.15;;;23.40;99.90;;;;;;4162030;28;20667;-75
2022/06/26 06:55:48;;;;;;;5.40;3.90;;;23.40;99.90;;;;;;4160973;28;20209;-76
2022/06/26 06:57:50;;;;;;;4.55;3.80;;;23.50;99.90;;;;;;4161637;28;20267;-76
2022/06/26 06:59:53;;;;;;;5.40;4.03;;;23.50;99.90;;;;;;4162871;28;20220;-75
2022/06/26 07:01:55;;;;;;;5.53;3.88;;;23.40;99.90;;;;;;4162346;28;20217;-75
2022/06/26 07:03:57;;;;;;;5.35;4.18;;;23.50;99.90;;;;;;4162589;28;20278;-75
2022/06/26 07:06:00;;;;;;;4.40;3.95;;;23.50;99.90;;;;;;4162478;28;20635;-75
2022/06/26 07:08:04;;;;;;;4.78;3.80;;;23.50;99.90;;;;;;4162518;28;20243;-75
2022/06/26 07:10:09;;;;;;;4.47;3.50;;;23.50;99.90;;;;;;4162311;28;20268;-75
2022/06/26 07:12:11;;;;;;;5.28;4.10;;;23.40;99.90;;;;;;4162776;28;20236;-75
2022/06/26 07:14:13;;;;;;;4.25;3.65;;;23.50;99.90;;;;;;4161639;28;20216;-75
2022/06/26 07:16:16;;;;;;;4.35;3.85;;;23.50;99.90;;;;;;4161766;28;20228;-76
2022/06/26 07:18:18;;;;;;;3.92;3.53;;;23.50;99.90;;;;;;4162524;28;20310;-76
2022/06/26 07:20:21;;;;;;;5.65;3.97;;;23.50;99.90;;;;;;4162022;28;20703;-76
2022/06/26 07:22:23;;;;;;;5.60;3.90;;;23.50;99.90;;;;;;4161383;28;20216;-75
2022/06/26 07:24:26;;;;;;;4.93;3.75;;;23.50;99.90;;;;;;4162012;28;20216;-75
2022/06/26 07:26:29;;;;;;;4.20;3.70;;;23.50;99.90;;;;;;4162130;28;20263;-75
2022/06/26 07:28:31;;;;;;;5.07;3.92;;;23.50;99.90;;;;;;4162064;28;20635;-75
2022/06/26 07:30:33;;;;;;;4.15;3.55;;;23.50;99.90;;;;;;4160798;28;20316;-75
2022/06/26 07:32:36;;;;;;;4.78;3.70;;;23.50;99.90;;;;;;4161334;28;20266;-75
2022/06/26 07:34:38;;;;;;;5.00;3.97;;;23.50;99.90;;;;;;4161538;28;20281;-75
2022/06/26 07:36:41;;;;;;;6.50;4.05;;;23.50;99.90;;;;;;4161603;28;20216;-75
2022/06/26 07:38:44;;;;;;;3.97;3.58;;;23.50;99.90;;;;;;4157961;28;20246;-75
2022/06/26 07:40:47;;;;;;;5.35;3.80;;;23.50;99.90;;;;;;4161958;28;20259;-75
2022/06/26 07:42:50;;;;;;;4.30;3.78;;;23.50;99.90;;;;;;4162271;28;20275;-75
2022/06/26 07:44:52;;;;;;;5.97;4.10;;;23.60;99.90;;;;;;4161946;28;20213;-75
2022/06/26 07:46:57;;;;;;;6.60;4.47;;;23.60;99.90;;;;;;4161229;28;20216;-75
2022/06/26 07:48:59;;;;;;;4.38;3.78;;;23.50;99.90;;;;;;4159181;28;20649;-75
2022/06/26 07:51:02;;;;;;;4.57;3.90;;;23.50;99.90;;;;;;4161947;28;20232;-75
2022/06/26 07:53:05;;;;;;;4.57;3.65;;;23.60;99.90;;;;;;4162027;28;20213;-75
2022/06/26 07:55:08;;;;;;;4.78;3.90;;;23.50;99.90;;;;;;4161357;28;20204;-75
2022/06/26 07:57:12;;;;;;;5.03;4.32;;;23.50;99.90;;;;;;4156677;28;20266;-75
2022/06/26 07:59:14;;;;;;;4.80;3.85;;;23.60;99.90;;;;;;4161528;28;20235;-75
2022/06/26 08:01:16;;;;;;;4.50;3.75;;;23.60;99.90;;;;;;4161761;28;20262;-75
2022/06/26 08:03:19;;;;;;;4.75;3.70;;;23.60;99.90;;;;;;4161740;28;20653;-75
2022/06/26 08:05:21;;;;;;;4.43;3.72;;;23.60;99.90;;;;;;4160099;28;20588;-75
2022/06/26 08:07:23;;;;;;;4.82;4.43;;;23.60;99.90;;;;;;4160460;28;20208;-75
2022/06/26 08:09:26;;;;;;;6.55;3.88;;;23.60;99.90;;;;;;4161254;28;20267;-75
2022/06/26 08:11:28;;;;;;;5.32;3.92;;;23.60;99.90;;;;;;4161307;28;20244;-75
2022/06/26 08:13:32;;;;;;;5.60;3.60;;;23.60;99.90;;;;;;4161244;28;20688;-75
2022/06/26 08:15:35;;;;;;;5.07;3.85;;;23.60;99.90;;;;;;4161769;28;20262;-75
2022/06/26 08:17:37;;;;;;;5.82;3.95;;;23.60;99.90;;;;;;4161943;28;20293;-75
2022/06/26 08:19:40;;;;;;;4.50;3.63;;;23.60;99.90;;;;;;4161439;28;20665;-75
2022/06/26 08:24:02;;;;;;;5.07;3.88;;;23.60;99.90;;;;;;4159910;28;20600;-75
2022/06/26 08:26:04;;;;;;;4.10;3.67;;;23.70;99.90;;;;;;4161170;28;20215;-75
2022/06/26 08:28:07;;;;;;;4.75;4.00;;;23.60;99.90;;;;;;4161712;28;20263;-77
2022/06/26 08:30:11;;;;;;;4.68;4.00;;;23.70;99.90;;;;;;4161079;28;20653;-77
2022/06/26 08:32:14;;;;;;;5.28;4.00;;;23.70;99.90;;;;;;4160101;28;20240;-77
2022/06/26 08:34:16;;;;;;;4.70;4.00;;;23.70;99.90;;;;;;4161301;28;20618;-77
2022/06/26 08:36:18;;;;;;;6.43;3.88;;;23.70;99.90;;;;;;4161360;28;20671;-77
2022/06/26 08:38:20;;;;;;;5.95;3.92;;;23.70;99.90;;;;;;4159663;28;20225;-77
2022/06/26 08:40:23;;;;;;;4.03;3.53;;;23.70;99.90;;;;;;4159784;28;20276;-77
2022/06/26 08:42:27;;;;;;;5.43;3.97;;;23.70;99.90;;;;;;4161003;28;20217;-77
2022/06/26 08:44:30;;;;;;;5.40;3.97;;;23.70;99.90;;;;;;4161012;28;20279;-77
2022/06/26 08:46:37;;;;;;;6.10;4.18;;;23.70;99.90;;;;;;4160827;28;20216;-77
2022/06/26 08:48:44;;;;;;;4.72;4.18;;;23.70;99.90;;;;;;4160749;28;20216;-77
2022/06/26 08:50:47;;;;;;;4.53;4.00;;;23.70;99.90;;;;;;4159971;28;20216;-77
2022/06/26 08:52:51;;;;;;;4.60;4.10;;;23.70;99.90;;;;;;4161075;28;20311;-77
2022/06/26 08:54:54;;;;;;;4.97;3.60;;;23.70;99.90;;;;;;4159549;28;20216;-77
2022/06/26 08:56:57;;;;;;;5.55;4.10;;;23.80;99.90;;;;;;4158623;28;20266;-77
2022/06/26 08:58:59;;;;;;;6.00;4.07;;;23.70;99.90;;;;;;4158219;28;20591;-77
2022/06/26 09:01:02;;;;;;;5.15;4.07;;;23.80;99.90;;;;;;4156263;28;20276;-77
2022/06/26 09:03:06;;;;;;;5.18;4.30;;;23.80;99.90;;;;;;4157119;28;20278;-77
2022/06/26 09:05:09;;;;;;;5.25;4.22;;;23.80;99.90;;;;;;4160216;28;20653;-77
2022/06/26 09:07:11;;;;;;;5.53;4.40;;;23.80;99.90;;;;;;4159100;28;20220;-76
2022/06/26 09:09:15;;;;;;;4.72;3.95;;;23.80;99.90;;;;;;4160446;28;20297;-77
2022/06/26 09:11:38;;;;;;;6.03;4.50;;;23.80;99.90;;;;;;4160294;28;20357;-76
2022/06/26 09:13:42;;;;;;;5.70;3.92;;;23.80;99.90;;;;;;4157368;28;20216;-77
2022/06/26 09:15:45;;;;;;;4.57;3.90;;;23.80;99.90;;;;;;4159878;28;20216;-77
2022/06/26 09:18:01;;;;;;;4.63;3.70;;;23.90;99.90;;;;;;4160743;28;20213;-77
2022/06/26 09:20:09;;;;;;;4.53;3.88;;;23.90;99.90;;;;;;4159990;28;20225;-77
2022/06/26 09:22:13;;;;;;;4.00;3.58;;;23.90;99.90;;;;;;4159971;28;20228;-77
2022/06/26 09:24:17;;;;;;;5.15;4.30;;;23.90;99.90;;;;;;4160581;28;20286;-77
2022/06/26 09:26:19;;;;;;;5.00;4.05;;;23.80;99.90;;;;;;4159651;28;20266;-76
2022/06/26 09:28:23;;;;;;;4.60;3.72;;;23.80;99.90;;;;;;4160183;28;20220;-76
2022/06/26 09:30:25;;;;;;;5.10;4.28;;;23.80;99.90;;;;;;4158840;28;20217;-77
2022/06/26 09:32:31;;;;;;;5.32;4.00;;;23.90;99.90;;;;;;4158947;28;20331;-77
2022/06/26 09:34:34;;;;;;;5.93;4.60;;;23.90;99.90;;;;;;4160212;28;20290;-77
2022/06/26 09:36:37;;;;;;;5.85;3.97;;;24.00;99.90;;;;;;4159832;28;20261;-77
2022/06/26 09:38:40;;;;;;;4.90;4.18;;;23.90;99.90;;;;;;4159641;28;20229;-77
2022/06/26 09:40:46;;;;;;;5.10;3.92;;;23.90;99.90;;;;;;4159441;28;20217;-77
2022/06/26 09:42:49;;;;;;;5.00;4.13;;;23.90;99.90;;;;;;4159713;28;20668;-77
2022/06/26 09:44:53;;;;;;;5.03;4.40;;;23.90;99.90;;;;;;4159684;28;20720;-77
2022/06/26 09:46:55;;;;;;;5.03;4.22;;;23.90;99.90;;;;;;4158835;28;20271;-77
2022/06/26 09:48:59;;;;;;;6.88;4.70;;;23.90;99.90;;;;;;4158396;28;20228;-77
2022/06/26 09:51:03;;;;;;;4.10;3.65;;;23.90;99.90;;;;;;4159979;28;20224;-77
2022/06/26 09:53:07;;;;;;;5.38;4.50;;;23.90;99.90;;;;;;4160011;28;20338;-77
2022/06/26 09:55:10;;;;;;;5.47;4.18;;;24.00;99.90;;;;;;4158817;28;20220;-77
2022/06/26 09:57:14;;;;;;;5.40;4.60;;;24.00;99.90;;;;;;4160047;28;20262;-77
2022/06/26 09:59:17;;;;;;;5.22;4.43;;;24.00;99.90;;;;;;4159509;28;20218;-77
2022/06/26 10:08:24;;;;;;;5.40;4.32;;;24.00;99.90;;;;;;4161378;28;20244;-77
2022/06/26 10:10:26;;;;;;;6.72;4.55;;;24.00;99.90;;;;;;4157673;28;20680;-77
2022/06/26 10:12:29;;;;;;;6.40;4.90;;;24.00;99.90;;;;;;4159921;28;20256;-77
2022/06/26 10:14:35;;;;;;;5.45;4.80;;;24.10;99.90;;;;;;4157888;28;20286;-76
2022/06/26 10:17:10;;;;;;;4.85;4.35;;;24.10;99.90;;;;;;4159971;28;20220;-77
2022/06/26 10:19:26;;;;;;;6.03;4.57;;;24.10;99.90;;;;;;4124969;28;20266;-76
2022/06/26 10:21:34;;;;;;;5.07;4.47;;;24.10;99.90;;;;;;4157068;28;20217;-77
2022/06/26 10:23:39;;;;;;;5.45;4.95;;;24.10;99.90;;;;;;4159245;28;20679;-76
2022/06/26 10:25:45;;;;;;;5.00;4.30;;;24.10;99.90;;;;;;4159976;28;20247;-76
2022/06/26 10:27:47;;;;;;;5.85;4.90;;;24.20;99.90;;;;;;4158911;28;20217;-76
2022/06/26 10:29:50;;;;;;;6.15;4.25;;;24.10;99.90;;;;;;4159595;28;20224;-77
2022/06/26 10:31:52;;;;;;;6.55;4.80;;;24.10;99.90;;;;;;4158086;28;20455;-76
2022/06/26 10:33:54;;;;;;;7.25;4.57;;;24.10;99.90;;;;;;4159068;28;20258;-77
2022/06/26 10:35:57;;;;;;;5.50;4.78;;;24.10;99.90;;;;;;4159291;28;20225;-77
2022/06/26 10:37:59;;;;;;;4.65;4.15;;;24.20;99.90;;;;;;4157472;28;20224;-77
2022/06/26 10:40:13;;;;;;;6.18;4.65;;;24.10;99.90;;;;;;4157299;28;20266;-76
2022/06/26 10:44:49;;;;;;;5.32;4.53;;;24.20;99.90;;;;;;4159607;28;20904;-76
2022/06/26 10:46:56;;;;;;;6.25;4.93;;;24.20;99.90;;;;;;4158768;28;20266;-76
2022/06/26 10:49:01;;;;;;;5.25;4.55;;;24.20;99.90;;;;;;4159154;28;20228;-77
2022/06/26 10:51:04;;;;;;;4.97;4.45;;;24.20;99.90;;;;;;4159400;28;20266;-77
2022/06/26 10:53:17;;;;;;;8.35;4.18;;;24.20;99.90;;;;;;4159014;28;20232;-77
2022/06/26 10:55:21;;;;;;;5.32;4.47;;;24.20;99.90;;;;;;4150574;28;20262;-77
2022/06/26 10:57:33;;;;;;;4.88;4.32;;;24.20;99.90;;;;;;4159114;28;20220;-76